Time;durP1;ratioP1;P1;durP2;ratioP2;P2;SDS_P1;SDS_P2;PMS_P1;PMS_P2;Temp;Humidity;BMP_temperature;BMP_pressure;BME280_temperature;BME280_humidity;BME280_pressure;Samples;Min_cycle;Max_cycle;Signal;HPM_P1;HPM_P2
2023/06/11 00:00:57;;;;;;;;;;;;;;;22.55;49.73;101344.66;5075504;28;19916;-60
2023/06/11 00:03:22;;;;;;;;;;;;;;;22.51;52.73;101340.97;5075279;28;19916;-59
2023/06/11 00:05:48;;;;;;;;;;;;;;;22.45;50.38;101343.28;5074077;28;19913;-60
2023/06/11 00:08:13;;;;;;;;;;;;;;;22.41;50.98;101342.41;5075420;28;19912;-60
2023/06/11 00:10:38;;;;;;;;;;;;;;;22.39;50.24;101344.75;5075435;28;19993;-59
2023/06/11 00:13:04;;;;;;;;;;;;;;;22.38;51.70;101343.13;5075259;28;19917;-60
2023/06/11 00:15:29;;;;;;;;;;;;;;;22.35;51.25;101341.06;5073682;28;19965;-59
2023/06/11 00:17:54;;;;;;;;;;;;;;;22.29;53.47;101343.38;5073469;28;19993;-60
2023/06/11 00:20:20;;;;;;;;;;;;;;;22.22;50.92;101341.22;5074230;28;20414;-59
2023/06/11 00:22:46;;;;;;;;;;;;;;;22.15;54.41;101340.31;5074524;28;20225;-60
2023/06/11 00:25:11;;;;;;;;;;;;;;;22.11;53.95;101335.41;5074957;28;19954;-60
2023/06/11 00:27:37;;;;;;;;;;;;;;;22.09;51.43;101339.78;5074946;28;19919;-60
2023/06/11 00:30:04;;;;;;;;;;;;;;;22.06;54.02;101338.50;5074895;28;20438;-60
2023/06/11 00:32:30;;;;;;;;;;;;;;;22.04;53.50;101342.91;5074808;28;20014;-60
2023/06/11 00:34:55;;;;;;;;;;;;;;;21.96;54.36;101339.97;5074742;28;19939;-59
2023/06/11 00:37:22;;;;;;;;;;;;;;;21.89;55.23;101339.81;5074718;28;20373;-58
2023/06/11 00:39:47;;;;;;;;;;;;;;;21.84;55.22;101328.03;5074643;28;20329;-58
2023/06/11 00:42:12;;;;;;;;;;;;;;;21.82;54.48;101334.06;5074622;28;20011;-58
2023/06/11 00:44:39;;;;;;;;;;;;;;;21.80;54.06;101327.97;5073143;28;19955;-58
2023/06/11 00:47:05;;;;;;;;;;;;;;;21.77;52.54;101335.16;5074324;28;19912;-58
2023/06/11 00:49:31;;;;;;;;;;;;;;;21.73;55.83;101327.81;5074743;28;19966;-58
2023/06/11 00:51:56;;;;;;;;;;;;;;;21.69;52.77;101329.75;5074417;28;19916;-58
2023/06/11 00:54:21;;;;;;;;;;;;;;;21.65;53.92;101329.69;5074436;28;19916;-58
2023/06/11 00:56:46;;;;;;;;;;;;;;;21.63;51.67;101329.25;5074282;28;19912;-57
2023/06/11 00:59:13;;;;;;;;;;;;;;;21.58;56.41;101326.69;5074357;28;19919;-58
2023/06/11 01:01:45;;;;;;;;;;;;;;;21.53;52.59;101332.59;5097838;28;19960;-58
2023/06/11 01:04:13;;;;;;;;;;;;;;;21.51;54.83;101335.81;5114924;28;19919;-58
2023/06/11 01:06:38;;;;;;;;;;;;;;;21.46;52.92;101330.44;5114593;28;19998;-58
2023/06/11 01:09:04;;;;;;;;;;;;;;;21.41;56.96;101328.75;5114618;28;19994;-58
2023/06/11 01:11:32;;;;;;;;;;;;;;;21.35;54.30;101328.22;5111896;28;19923;-57
2023/06/11 01:13:58;;;;;;;;;;;;;;;21.31;55.09;101329.31;5114123;28;20336;-58
2023/06/11 01:16:42;;;;;;;;;;;;;;;21.29;53.03;101323.28;5114288;28;19915;-58
2023/06/11 01:19:28;;;;;;;;;;;;;;;21.26;53.47;101332.44;5114439;28;20286;-58
2023/06/11 01:21:59;;;;;;;;;;;;;;;21.19;54.03;101330.28;5114222;28;19927;-58
2023/06/11 01:24:42;;;;;;;;;;;;;;;21.14;55.76;101330.59;5114383;28;19914;-58
2023/06/11 01:27:10;;;;;;;;;;;;;;;21.09;55.38;101330.84;5101231;28;19916;-58
2023/06/11 01:29:38;;;;;;;;;;;;;;;21.08;56.36;101340.47;5093992;28;20356;-58
2023/06/11 01:32:04;;;;;;;;;;;;;;;21.06;56.86;101345.66;5093518;28;19916;-58
2023/06/11 01:34:29;;;;;;;;;;;;;;;21.04;58.77;101337.56;5093773;28;20348;-58
2023/06/11 01:36:54;;;;;;;;;;;;;;;20.97;57.14;101345.84;5093710;28;20376;-58
2023/06/11 01:39:19;;;;;;;;;;;;;;;20.92;56.29;101340.53;5093637;28;19923;-58
2023/06/11 01:41:45;;;;;;;;;;;;;;;20.87;56.92;101336.81;5093550;28;19920;-58
2023/06/11 01:44:10;;;;;;;;;;;;;;;20.85;58.50;101338.34;5093927;28;19912;-58
2023/06/11 01:46:35;;;;;;;;;;;;;;;20.82;59.85;101351.16;5085102;28;19916;-58
2023/06/11 01:49:00;;;;;;;;;;;;;;;20.81;58.09;101345.88;5093363;28;19919;-58
2023/06/11 01:51:26;;;;;;;;;;;;;;;20.77;60.18;101339.38;5093425;28;19938;-58
2023/06/11 01:53:51;;;;;;;;;;;;;;;20.71;62.06;101350.84;5091957;28;20241;-59
2023/06/11 01:56:16;;;;;;;;;;;;;;;20.67;57.85;101333.09;5093379;28;19916;-59
2023/06/11 01:58:45;;;;;;;;;;;;;;;20.64;58.15;101342.25;5093334;28;19996;-59
2023/06/11 02:01:10;;;;;;;;;;;;;;;20.64;56.28;101339.44;5093449;28;19931;-59
2023/06/11 02:03:35;;;;;;;;;;;;;;;20.63;59.00;101334.97;5093184;28;20286;-59
2023/06/11 02:06:01;;;;;;;;;;;;;;;20.60;59.66;101340.53;5093150;28;19969;-58
2023/06/11 02:08:26;;;;;;;;;;;;;;;20.52;60.71;101343.16;5090035;28;20007;-59
2023/06/11 02:10:52;;;;;;;;;;;;;;;20.52;58.11;101334.72;5093163;28;20348;-59
2023/06/11 02:13:17;;;;;;;;;;;;;;;20.46;58.19;101330.53;5093077;28;19957;-59
2023/06/11 02:15:42;;;;;;;;;;;;;;;20.42;58.39;101332.47;5093025;28;19923;-59
2023/06/11 02:18:07;;;;;;;;;;;;;;;20.45;58.92;101336.53;5093106;28;19912;-59
2023/06/11 02:20:32;;;;;;;;;;;;;;;20.43;57.86;101339.72;5092826;28;20367;-58
2023/06/11 02:22:58;;;;;;;;;;;;;;;20.40;59.94;101338.41;5092936;28;19946;-59
2023/06/11 02:25:23;;;;;;;;;;;;;;;20.38;58.44;101325.91;5092834;28;19916;-59
2023/06/11 02:27:51;;;;;;;;;;;;;;;20.34;60.82;101339.06;5092806;28;19920;-59
2023/06/11 02:30:16;;;;;;;;;;;;;;;20.31;58.15;101339.78;5092812;28;19960;-59
2023/06/11 02:32:42;;;;;;;;;;;;;;;20.30;59.71;101336.19;5092877;28;20027;-59
2023/06/11 02:35:07;;;;;;;;;;;;;;;20.25;59.66;101334.44;5092796;28;20317;-59
2023/06/11 02:37:33;;;;;;;;;;;;;;;20.23;57.99;101335.97;5092736;28;19923;-59
2023/06/11 02:39:58;;;;;;;;;;;;;;;20.20;57.35;101339.50;5092855;28;19988;-59
2023/06/11 02:42:23;;;;;;;;;;;;;;;20.17;59.15;101340.22;5092758;28;19916;-59
2023/06/11 02:44:48;;;;;;;;;;;;;;;20.10;59.67;101341.66;5091887;28;20272;-58
2023/06/11 02:47:14;;;;;;;;;;;;;;;20.08;61.09;101340.38;5092615;28;20375;-59
2023/06/11 02:49:39;;;;;;;;;;;;;;;20.05;60.73;101341.13;5092679;28;19920;-59
2023/06/11 02:52:04;;;;;;;;;;;;;;;20.00;60.01;101341.38;5092583;28;20079;-59
2023/06/11 02:54:30;;;;;;;;;;;;;;;19.98;59.92;101347.34;5092610;28;20268;-59
2023/06/11 02:56:55;;;;;;;;;;;;;;;19.98;61.31;101341.72;5092577;28;20015;-59
2023/06/11 02:59:20;;;;;;;;;;;;;;;19.94;62.79;101338.81;5092487;28;19912;-58
2023/06/11 03:01:45;;;;;;;;;;;;;;;19.88;59.79;101345.06;5092780;28;19938;-59
2023/06/11 03:04:10;;;;;;;;;;;;;;;19.87;62.13;101343.41;5088953;28;20367;-58
2023/06/11 03:06:36;;;;;;;;;;;;;;;19.81;62.36;101342.81;5092310;28;19924;-59
2023/06/11 03:09:01;;;;;;;;;;;;;;;19.77;61.68;101344.72;5092425;28;19919;-60
2023/06/11 03:11:26;;;;;;;;;;;;;;;19.73;63.70;101344.63;5092534;28;19968;-59
2023/06/11 03:13:51;;;;;;;;;;;;;;;19.71;62.93;101348.94;5092330;28;20315;-59
2023/06/11 03:16:17;;;;;;;;;;;;;;;19.69;61.48;101345.69;5092334;28;19942;-59
2023/06/11 03:18:43;;;;;;;;;;;;;;;19.68;61.15;101338.44;5092338;28;19916;-58
2023/06/11 03:21:08;;;;;;;;;;;;;;;19.67;65.78;101346.03;5091895;28;20021;-59
2023/06/11 03:23:34;;;;;;;;;;;;;;;19.59;67.86;101342.22;5092186;28;19951;-59
2023/06/11 03:25:59;;;;;;;;;;;;;;;19.54;67.92;101353.69;5092169;28;20283;-59
2023/06/11 03:28:26;;;;;;;;;;;;;;;19.52;64.80;101356.03;5108654;28;20396;-59
2023/06/11 03:30:52;;;;;;;;;;;;;;;19.53;64.26;101354.84;5112477;28;19912;-58
2023/06/11 03:33:17;;;;;;;;;;;;;;;19.53;66.45;101354.06;5112161;28;19915;-59
2023/06/11 03:35:42;;;;;;;;;;;;;;;19.51;63.75;101348.78;5112368;28;19952;-59
2023/06/11 03:38:07;;;;;;;;;;;;;;;19.50;66.71;101355.59;5112229;28;19915;-59
2023/06/11 03:40:33;;;;;;;;;;;;;;;19.47;66.25;101350.69;5112534;28;19911;-59
2023/06/11 03:42:58;;;;;;;;;;;;;;;19.46;66.62;101344.22;5100468;28;19912;-59
2023/06/11 03:45:23;;;;;;;;;;;;;;;19.48;64.01;101357.94;5092299;28;19919;-59
2023/06/11 03:47:52;;;;;;;;;;;;;;;19.63;64.77;101359.97;5092245;28;19928;-58
2023/06/11 03:50:18;;;;;;;;;;;;;;;19.89;62.41;101350.31;5091969;28;19919;-58
2023/06/11 03:52:43;;;;;;;;;;;;;;;20.21;62.92;101363.63;5091971;28;19969;-58
2023/06/11 03:55:08;;;;;;;;;;;;;;;20.31;67.04;101362.25;5092795;28;19912;-59
2023/06/11 03:57:33;;;;;;;;;;;;;;;20.18;65.71;101364.34;5095859;28;19916;-58
2023/06/11 03:59:58;;;;;;;;;;;;;;;20.03;66.59;101360.31;5093473;28;19916;-57
2023/06/11 04:02:23;;;;;;;;;;;;;;;19.87;65.20;101357.47;5095229;28;20379;-59
2023/06/11 04:04:50;;;;;;;;;;;;;;;19.80;67.94;101356.06;5095663;28;19918;-58
2023/06/11 04:07:15;;;;;;;;;;;;;;;19.72;69.29;101364.63;5095520;28;19955;-58
2023/06/11 04:09:40;;;;;;;;;;;;;;;19.64;69.02;101366.41;5095640;28;19943;-58
2023/06/11 04:12:06;;;;;;;;;;;;;;;19.59;68.30;101361.88;5095534;28;19922;-59
2023/06/11 04:14:31;;;;;;;;;;;;;;;19.58;66.99;101360.25;5095423;28;19912;-58
2023/06/11 04:16:56;;;;;;;;;;;;;;;19.59;68.25;101366.66;5095484;28;19959;-58
2023/06/11 04:19:22;;;;;;;;;;;;;;;19.57;70.08;101361.41;5095119;28;20057;-58
2023/06/11 04:21:47;;;;;;;;;;;;;;;19.54;66.35;101356.50;5095152;28;19926;-58
2023/06/11 04:24:12;;;;;;;;;;;;;;;19.55;67.10;101358.13;5095051;28;19923;-58
2023/06/11 04:26:37;;;;;;;;;;;;;;;19.54;67.42;101362.09;5095096;28;19916;-58
2023/06/11 04:29:03;;;;;;;;;;;;;;;19.54;67.83;101370.53;5095210;28;20011;-58
2023/06/11 04:31:29;;;;;;;;;;;;;;;19.54;68.57;101373.34;5095304;28;19924;-59
2023/06/11 04:34:02;;;;;;;;;;;;;;;19.56;70.07;101362.56;5095290;28;20388;-58
2023/06/11 04:36:27;;;;;;;;;;;;;;;19.60;68.24;101366.28;5095243;28;19924;-58
2023/06/11 04:38:53;;;;;;;;;;;;;;;19.67;63.35;101368.50;5095271;28;19998;-59
2023/06/11 04:41:22;;;;;;;;;;;;;;;19.72;69.41;101371.06;5095034;28;20037;-59
2023/06/11 04:43:48;;;;;;;;;;;;;;;19.76;69.45;101366.34;5094862;28;20372;-59
2023/06/11 04:46:14;;;;;;;;;;;;;;;19.78;68.16;101361.22;5094648;28;19923;-59
2023/06/11 04:48:40;;;;;;;;;;;;;;;19.79;70.01;101362.00;5094443;28;20696;-59
2023/06/11 04:51:06;;;;;;;;;;;;;;;19.83;64.93;101364.94;5094821;28;20485;-59
2023/06/11 04:53:31;;;;;;;;;;;;;;;19.88;69.32;101368.34;5094878;28;19912;-60
2023/06/11 04:55:58;;;;;;;;;;;;;;;19.93;70.67;101367.28;5091260;28;19939;-59
2023/06/11 04:58:27;;;;;;;;;;;;;;;19.99;68.33;101362.19;5106073;28;19957;-59
2023/06/11 05:00:53;;;;;;;;;;;;;;;20.04;65.33;101368.38;5114786;28;19964;-60
2023/06/11 05:03:18;;;;;;;;;;;;;;;20.12;68.79;101372.19;5108207;28;19916;-60
2023/06/11 05:05:49;;;;;;;;;;;;;;;20.21;68.14;101378.47;5094393;28;20337;-60
2023/06/11 05:08:18;;;;;;;;;;;;;;;20.27;69.06;101384.66;5103369;28;19912;-59
2023/06/11 05:10:43;;;;;;;;;;;;;;;20.33;68.39;101374.75;5114998;28;19916;-60
2023/06/11 05:13:09;;;;;;;;;;;;;;;20.39;67.94;101372.50;5114658;28;20343;-59
2023/06/11 05:15:34;;;;;;;;;;;;;;;20.50;67.07;101372.81;5114734;28;19915;-60
2023/06/11 05:18:00;;;;;;;;;;;;;;;20.61;67.34;101378.69;5114368;28;19971;-60
2023/06/11 05:20:26;;;;;;;;;;;;;;;20.70;66.17;101382.94;5114536;28;19922;-60
2023/06/11 05:22:53;;;;;;;;;;;;;;;20.80;64.82;101381.63;5114581;28;19927;-60
2023/06/11 05:25:19;;;;;;;;;;;;;;;20.86;64.28;101388.59;5114685;28;19936;-59
2023/06/11 05:27:45;;;;;;;;;;;;;;;20.96;65.28;101392.03;5114339;28;19923;-59
2023/06/11 05:30:10;;;;;;;;;;;;;;;21.03;63.43;101384.59;5114461;28;19912;-59
2023/06/11 05:32:36;;;;;;;;;;;;;;;21.12;61.90;101381.56;5114289;28;19931;-59
2023/06/11 05:35:03;;;;;;;;;;;;;;;21.23;64.57;101378.19;5114509;28;20037;-60
2023/06/11 05:37:28;;;;;;;;;;;;;;;21.33;63.34;101381.25;5099209;28;19947;-59
2023/06/11 05:39:54;;;;;;;;;;;;;;;21.44;63.52;101384.31;5093923;28;19997;-59
2023/06/11 05:42:19;;;;;;;;;;;;;;;21.53;62.63;101380.47;5093910;28;19912;-59
2023/06/11 05:44:44;;;;;;;;;;;;;;;21.62;61.96;101383.91;5073503;28;19912;-59
2023/06/11 05:47:09;;;;;;;;;;;;;;;21.70;61.25;101382.06;5073243;28;19934;-60
2023/06/11 05:49:35;;;;;;;;;;;;;;;21.76;62.45;101377.75;5092285;28;19916;-59
2023/06/11 05:52:00;;;;;;;;;;;;;;;21.82;62.83;101384.75;5090000;28;19918;-60
2023/06/11 05:54:26;;;;;;;;;;;;;;;21.87;61.54;101381.63;5093769;28;19920;-60
2023/06/11 05:56:51;;;;;;;;;;;;;;;21.95;61.84;101377.75;5092279;28;19919;-60
2023/06/11 05:59:16;;;;;;;;;;;;;;;22.07;61.34;101379.59;5093531;28;19923;-60
2023/06/11 06:01:45;;;;;;;;;;;;;;;22.12;61.27;101375.66;5093477;28;20299;-60
2023/06/11 06:04:11;;;;;;;;;;;;;;;22.19;60.48;101384.28;5093313;28;20386;-59
2023/06/11 06:06:36;;;;;;;;;;;;;;;22.27;61.41;101391.66;5093403;28;20006;-60
2023/06/11 06:09:02;;;;;;;;;;;;;;;22.35;60.89;101388.97;5093311;28;20000;-59
2023/06/11 06:11:27;;;;;;;;;;;;;;;22.43;60.69;101390.75;5093440;28;19931;-60
2023/06/11 06:13:52;;;;;;;;;;;;;;;22.51;60.45;101389.69;5093273;28;20006;-60
2023/06/11 06:16:18;;;;;;;;;;;;;;;22.57;60.17;101393.84;5093289;28;20278;-61
2023/06/11 06:18:44;;;;;;;;;;;;;;;22.62;61.17;101395.53;5093152;28;19916;-60
2023/06/11 06:21:09;;;;;;;;;;;;;;;22.70;59.99;101400.09;5093486;28;20007;-59
2023/06/11 06:23:34;;;;;;;;;;;;;;;22.78;59.59;101405.88;5097018;28;20501;-59
2023/06/11 06:26:00;;;;;;;;;;;;;;;22.82;59.86;101401.91;5092929;28;19916;-60
2023/06/11 06:28:25;;;;;;;;;;;;;;;22.89;59.24;101404.84;5092976;28;19915;-59
2023/06/11 06:30:50;;;;;;;;;;;;;;;22.93;59.83;101407.72;5092954;28;20341;-60
2023/06/11 06:33:17;;;;;;;;;;;;;;;22.99;58.62;101406.22;5097968;28;19934;-60
2023/06/11 06:35:42;;;;;;;;;;;;;;;23.07;58.51;101404.31;5113313;28;19915;-60
2023/06/11 06:38:07;;;;;;;;;;;;;;;23.16;59.54;101404.84;5112975;28;20359;-59
2023/06/11 06:40:33;;;;;;;;;;;;;;;23.25;59.04;101413.09;5113397;28;19916;-60
2023/06/11 06:42:58;;;;;;;;;;;;;;;23.38;59.23;101410.06;5112843;28;20350;-60
2023/06/11 06:45:23;;;;;;;;;;;;;;;23.50;58.76;101412.63;5113330;28;19922;-60
2023/06/11 06:47:48;;;;;;;;;;;;;;;23.61;58.16;101401.50;5109109;28;19923;-59
2023/06/11 06:50:14;;;;;;;;;;;;;;;23.71;58.09;101403.63;5113136;28;20291;-60
2023/06/11 06:52:39;;;;;;;;;;;;;;;23.81;57.68;101404.97;5113115;28;20260;-59
2023/06/11 06:55:04;;;;;;;;;;;;;;;23.92;56.68;101399.44;5093612;28;19915;-60
2023/06/11 06:57:30;;;;;;;;;;;;;;;23.96;56.74;101406.81;5092685;28;19923;-60
2023/06/11 06:59:55;;;;;;;;;;;;;;;23.99;56.80;101400.38;5110375;28;20294;-60
2023/06/11 07:02:20;;;;;;;;;;;;;;;24.05;57.44;101392.38;5113002;28;20024;-62
2023/06/11 07:04:45;;;;;;;;;;;;;;;24.18;57.34;101403.44;5112617;28;20282;-59
2023/06/11 07:07:11;;;;;;;;;;;;;;;24.32;56.54;101405.59;5103585;28;19969;-59
2023/06/11 07:09:36;;;;;;;;;;;;;;;24.37;56.07;101397.56;5092448;28;19916;-59
2023/06/11 07:23:01;;;;;;;22.95;16.02;;;;;;;24.69;55.58;101405.56;5068138;28;20390;-57
2023/06/11 07:25:30;;;;;;;22.10;15.70;;;;;;;24.76;54.96;101404.81;5068256;28;20048;-56
2023/06/11 07:27:57;;;;;;;21.65;15.18;;;;;;;24.88;55.29;101406.53;5067719;28;20101;-57
2023/06/11 07:30:24;;;;;;;22.35;15.75;;;;;;;24.99;54.60;101403.78;5088321;28;20020;-57
2023/06/11 07:32:50;;;;;;;21.55;15.50;;;;;;;25.07;55.01;101411.94;5089213;28;20040;-57
2023/06/11 07:35:16;;;;;;;23.10;15.07;;;;;;;25.11;53.99;101405.50;5089020;28;20028;-57
2023/06/11 07:37:41;;;;;;;20.98;14.63;;;;;;;25.23;54.55;101410.81;5089225;28;20452;-58
2023/06/11 07:40:07;;;;;;;20.88;15.57;;;;;;;25.31;54.59;101406.84;5088952;28;20036;-57
2023/06/11 07:42:32;;;;;;;21.02;15.20;;;;;;;25.40;53.01;101405.72;5089063;28;20060;-58
2023/06/11 07:44:58;;;;;;;20.95;15.05;;;;;;;25.47;53.46;101402.91;5088829;28;20437;-57
2023/06/11 07:47:23;;;;;;;20.27;14.30;;;;;;;25.57;53.52;101416.34;5088917;28;20073;-57
2023/06/11 07:49:48;;;;;;;22.63;14.65;;;;;;;25.61;52.67;101411.47;5084662;28;20286;-57
2023/06/11 07:52:14;;;;;;;21.08;14.73;;;;;;;25.61;52.23;101411.47;5088840;28;20512;-57
2023/06/11 07:54:39;;;;;;;21.05;14.60;;;;;;;25.77;53.25;101410.34;5088644;28;20027;-58
2023/06/11 07:57:06;;;;;;;21.88;14.77;;;;;;;25.92;52.42;101408.41;5088766;28;20051;-57
2023/06/11 07:59:31;;;;;;;22.00;14.90;;;;;;;26.01;51.81;101411.66;5088430;28;20032;-58
2023/06/11 08:01:56;;;;;;;20.83;15.15;;;;;;;25.98;50.97;101412.44;5088587;28;20032;-57
2023/06/11 08:04:22;;;;;;;22.92;14.55;;;;;;;25.99;51.38;101408.41;5088307;28;20034;-57
2023/06/11 08:06:47;;;;;;;20.23;14.30;;;;;;;26.11;51.22;101410.09;5088360;28;20486;-55
2023/06/11 08:09:13;;;;;;;20.30;14.63;;;;;;;26.11;50.78;101405.25;5088351;28;20043;-56
2023/06/11 08:11:41;;;;;;;22.30;14.90;;;;;;;26.21;50.91;101403.63;5088494;28;20039;-56
2023/06/11 08:14:06;;;;;;;131.43;26.55;;;;;;;26.28;50.87;101405.69;5088238;28;20036;-56
2023/06/11 08:16:32;;;;;;;20.73;14.73;;;;;;;26.33;50.18;101407.31;5088529;28;20081;-60
2023/06/11 08:18:57;;;;;;;32.42;15.85;;;;;;;26.49;50.40;101407.75;5088285;28;20571;-59
2023/06/11 08:21:23;;;;;;;21.50;13.75;;;;;;;26.55;49.17;101408.94;5088483;28;20522;-58
2023/06/11 08:23:48;;;;;;;53.90;18.98;;;;;;;26.53;49.74;101405.72;5088321;28;20033;-58
2023/06/11 08:26:14;;;;;;;22.42;14.55;;;;;;;26.68;49.13;101402.88;5088450;28;20024;-58
2023/06/11 08:28:39;;;;;;;30.52;14.98;;;;;;;26.69;49.13;101396.00;5088542;28;20112;-58
2023/06/11 08:31:05;;;;;;;26.27;15.38;;;;;;;26.75;48.84;101397.22;5075711;28;20116;-58
2023/06/11 08:33:33;;;;;;;30.15;15.65;;;;;;;26.83;48.44;101392.38;5059847;28;20111;-59
2023/06/11 08:35:58;;;;;;;20.02;14.02;;;;;;;26.94;48.08;101396.84;5054773;28;20029;-59
2023/06/11 08:38:27;;;;;;;43.28;17.30;;;;;;;27.05;48.21;101396.84;5054819;28;20109;-57
2023/06/11 08:40:53;;;;;;;40.20;15.85;;;;;;;27.22;48.09;101386.66;5054768;28;20123;-57
2023/06/11 08:43:19;;;;;;;65.63;19.95;;;;;;;27.34;47.47;101393.13;5055031;28;20087;-58
2023/06/11 08:45:45;;;;;;;35.58;16.00;;;;;;;27.35;46.74;101398.38;5049907;28;20484;-58
2023/06/11 08:48:13;;;;;;;23.08;13.60;;;;;;;27.36;46.33;101393.53;5053324;28;20487;-58
2023/06/11 08:50:38;;;;;;;21.42;13.80;;;;;;;27.45;46.12;101385.41;5054961;28;20094;-58
2023/06/11 08:53:06;;;;;;;19.77;13.32;;;;;;;27.55;46.11;101395.94;5054203;28;20029;-58
2023/06/11 08:55:32;;;;;;;19.15;13.02;;;;;;;27.58;45.46;101396.34;5068977;28;20543;-58
2023/06/11 08:57:57;;;;;;;20.05;13.30;;;;;;;27.71;45.37;101392.63;5074535;28;20106;-58
2023/06/11 09:00:23;;;;;;;20.38;13.10;;;;;;;27.92;45.76;101393.72;5074099;28;20108;-58
2023/06/11 09:02:50;;;;;;;20.60;13.60;;;;;;;28.09;44.95;101377.84;5073966;28;20071;-59
2023/06/11 09:05:16;;;;;;;20.65;13.38;;;;;;;28.26;45.61;101380.97;5072979;28;20028;-60
2023/06/11 09:07:49;;;;;;;35.05;13.77;;;;;;;28.42;44.96;101389.81;5073073;28;20047;-59
2023/06/11 09:10:14;;;;;;;25.58;13.60;;;;;;;28.55;43.54;101380.75;5071391;28;20036;-58
2023/06/11 09:12:40;;;;;;;20.65;13.63;;;;;;;28.76;44.07;101369.25;5074156;28;20024;-58
2023/06/11 09:15:06;;;;;;;20.30;13.15;;;;;;;28.63;43.09;101377.47;5073936;28;20052;-59
2023/06/11 09:17:36;;;;;;;20.33;13.90;;;;;;;28.58;43.42;101375.03;5073843;28;20033;-58
2023/06/11 09:20:07;;;;;;;20.50;13.35;;;;;;;28.71;43.12;101378.25;5073790;28;20123;-59
2023/06/11 09:22:35;;;;;;;21.38;13.50;;;;;;;28.86;42.82;101375.25;5074065;28;20411;-59
2023/06/11 09:25:19;;;;;;;20.35;13.30;;;;;;;28.84;42.76;101372.84;5064293;28;20017;-60
2023/06/11 09:27:46;;;;;;;20.38;13.52;;;;;;;28.74;42.42;101377.38;5054076;28;20061;-59
2023/06/11 09:30:17;;;;;;;20.23;13.00;;;;;;;28.79;42.36;101379.78;5054064;28;20029;-59
2023/06/11 09:32:47;;;;;;;20.63;13.27;;;;;;;28.84;41.25;101372.84;5053824;28;20354;-59
2023/06/11 09:35:13;;;;;;;19.08;12.70;;;;;;;29.01;40.73;101375.94;5053860;28;20029;-59
2023/06/11 09:37:52;;;;;;;20.02;12.60;;;;;;;29.12;40.56;101373.78;5053576;28;20082;-59
2023/06/11 09:40:20;;;;;;;19.83;12.57;;;;;;;29.17;40.08;101378.22;5053344;28;20112;-58
2023/06/11 09:42:47;;;;;;;19.20;12.77;;;;;;;29.20;41.01;101374.50;5053423;28;20472;-59
2023/06/11 09:45:16;;;;;;;19.30;12.27;;;;;;;29.29;39.02;101371.94;5048692;28;20072;-59
2023/06/11 09:47:44;;;;;;;20.77;12.30;;;;;;;29.30;38.91;101372.78;5053614;28;20031;-59
2023/06/11 09:50:11;;;;;;;18.67;12.32;;;;;;;29.55;39.17;101367.63;5053495;28;20469;-59
2023/06/11 09:52:38;;;;;;;18.67;12.05;;;;;;;29.78;38.76;101379.53;5053333;28;20028;-59
2023/06/11 09:55:06;;;;;;;18.77;12.13;;;;;;;29.88;37.83;101375.75;5053279;28;20036;-59
2023/06/11 09:57:32;;;;;;;21.45;12.70;;;;;;;29.96;38.56;101370.78;5053562;28;20029;-58
2023/06/11 09:59:58;;;;;;;19.48;12.52;;;;;;;30.02;38.24;101378.44;5053238;28;20382;-59
2023/06/11 10:02:23;;;;;;;18.75;12.30;;;;;;;30.15;37.87;101372.97;5053342;28;20104;-59
2023/06/11 10:04:49;;;;;;;19.73;12.60;;;;;;;30.13;37.26;101369.72;5052970;28;20433;-59
2023/06/11 10:07:16;;;;;;;19.20;12.55;;;;;;;30.17;36.78;101379.03;5053197;28;20083;-59
2023/06/11 10:09:44;;;;;;;19.80;13.25;;;;;;;30.21;36.84;101379.00;5053000;28;20082;-59
2023/06/11 10:12:10;;;;;;;19.27;12.48;;;;;;;30.30;37.22;101372.72;5051597;28;20028;-59
2023/06/11 10:14:36;;;;;;;20.15;12.52;;;;;;;30.30;36.20;101376.41;5053020;28;20037;-59
2023/06/11 10:17:07;;;;;;;19.10;12.38;;;;;;;30.40;37.00;101385.22;5052969;28;20437;-59
2023/06/11 10:19:36;;;;;;;19.95;12.45;;;;;;;30.39;36.10;101377.91;5052816;28;20029;-60
2023/06/11 10:22:02;;;;;;;19.42;12.75;;;;;;;30.39;36.31;101383.59;5052455;28;20522;-59
2023/06/11 10:24:28;;;;;;;19.08;11.90;;;;;;;30.47;36.44;101380.19;5052660;28;20104;-59
2023/06/11 10:27:12;;;;;;;20.00;13.02;;;;;;;30.53;36.67;101374.03;5052872;28;20086;-59
2023/06/11 10:29:46;;;;;;;19.95;12.07;;;;;;;30.68;36.60;101374.59;5052789;28;20070;-59
2023/06/11 10:32:21;;;;;;;19.98;12.85;;;;;;;30.75;36.29;101380.97;5052730;28;20063;-59
2023/06/11 10:34:57;;;;;;;19.75;12.38;;;;;;;30.53;36.96;101376.88;5052533;28;20033;-59
2023/06/11 10:37:32;;;;;;;18.65;12.32;;;;;;;30.26;35.65;101387.06;5052609;28;20037;-59
2023/06/11 10:39:58;;;;;;;19.52;12.13;;;;;;;30.10;35.99;101381.97;5052474;28;20021;-59
2023/06/11 10:42:25;;;;;;;18.88;12.20;;;;;;;30.29;35.39;101374.78;5048897;28;20032;-59
2023/06/11 10:44:55;;;;;;;18.70;11.82;;;;;;;30.49;34.97;101372.00;5052527;28;20055;-58
2023/06/11 10:47:20;;;;;;;19.02;11.60;;;;;;;30.65;34.63;101382.00;5052463;28;20025;-59
2023/06/11 10:49:46;;;;;;;19.13;11.98;;;;;;;30.80;34.70;101373.97;5052408;28;20074;-58
2023/06/11 10:52:12;;;;;;;19.52;12.00;;;;;;;30.94;34.27;101370.88;5052327;28;20040;-59
2023/06/11 10:54:37;;;;;;;19.17;11.82;;;;;;;31.11;33.99;101356.72;5052269;28;20029;-59
2023/06/11 10:57:03;;;;;;;18.67;11.90;;;;;;;31.03;33.19;101367.41;5051973;28;20120;-60
2023/06/11 10:59:30;;;;;;;19.63;11.38;;;;;;;31.04;33.30;101371.91;5052125;28;20050;-59
2023/06/11 11:01:56;;;;;;;18.35;11.60;;;;;;;30.96;33.33;101370.41;5052013;28;20378;-59
2023/06/11 11:04:22;;;;;;;18.83;10.70;;;;;;;30.84;32.96;101369.00;5052201;28;20036;-59
2023/06/11 11:06:48;;;;;;;17.13;10.55;;;;;;;30.96;32.91;101361.84;5052088;28;20060;-59
2023/06/11 11:09:21;;;;;;;17.38;10.88;;;;;;;31.02;32.94;101365.84;5051996;28;20028;-59
2023/06/11 11:11:47;;;;;;;17.42;10.85;;;;;;;31.08;32.23;101374.72;5052202;28;20032;-59
2023/06/11 11:14:12;;;;;;;17.95;10.60;;;;;;;31.21;32.55;101360.63;5051885;28;20025;-59
2023/06/11 11:16:38;;;;;;;17.58;10.90;;;;;;;31.25;32.03;101370.72;5052012;28;20086;-59
2023/06/11 11:19:03;;;;;;;18.45;10.85;;;;;;;31.33;31.85;101364.88;5052178;28;20124;-59
2023/06/11 11:21:30;;;;;;;18.05;10.27;;;;;;;31.21;31.22;101372.03;5051729;28;20059;-59
2023/06/11 11:23:56;;;;;;;17.80;10.60;;;;;;;31.38;31.92;101361.47;5050382;28;20116;-59
2023/06/11 11:26:21;;;;;;;16.15;10.05;;;;;;;31.52;32.34;101358.34;5051685;28;20148;-59
2023/06/11 11:28:46;;;;;;;17.60;10.30;;;;;;;31.48;32.17;101359.66;5051554;28;20029;-59
2023/06/11 11:31:16;;;;;;;18.42;10.90;;;;;;;31.48;31.97;101351.88;5052004;28;20290;-57
2023/06/11 11:33:41;;;;;;;18.08;11.05;;;;;;;31.69;31.67;101361.28;5051944;28;20037;-60
2023/06/11 11:36:07;;;;;;;18.53;11.00;;;;;;;31.71;31.31;101356.72;5048180;28;20036;-58
2023/06/11 11:38:36;;;;;;;18.65;10.90;;;;;;;31.72;31.69;101349.75;5051777;28;20752;-59
2023/06/11 11:41:02;;;;;;;17.02;9.95;;;;;;;31.54;31.06;101352.19;5051740;28;20044;-61
2023/06/11 11:43:41;;;;;;;17.05;10.38;;;;;;;31.39;31.62;101354.53;5051628;28;20473;-61
2023/06/11 11:46:24;;;;;;;17.10;9.93;;;;;;;31.39;30.58;101348.81;5051460;28;20477;-59
2023/06/11 11:48:53;;;;;;;16.70;9.50;;;;;;;31.63;30.37;101351.59;5051728;28;20037;-58
2023/06/11 11:51:19;;;;;;;15.52;9.30;;;;;;;31.79;30.25;101353.72;5051370;28;20033;-59
2023/06/11 11:53:44;;;;;;;17.05;9.50;;;;;;;31.99;30.00;101345.09;5051466;28;20040;-59
2023/06/11 11:56:09;;;;;;;16.63;10.00;;;;;;;32.05;30.03;101334.72;5051532;28;20448;-59
2023/06/11 11:58:37;;;;;;;16.30;9.18;;;;;;;32.15;29.65;101350.03;5051529;28;20050;-58
2023/06/11 12:01:02;;;;;;;16.90;9.40;;;;;;;32.21;29.92;101349.03;5051608;28;20033;-59
2023/06/11 12:03:28;;;;;;;18.40;9.80;;;;;;;32.36;29.45;101343.81;5051479;28;20499;-58
2023/06/11 12:05:57;;;;;;;16.70;9.43;;;;;;;32.34;28.36;101346.34;5042561;28;20032;-59